Date,TemperatureHighF,TemperatureAvgF,TemperatureLowF,DewpointHighF,DewpointAvgF,DewpointLowF,HumidityHigh,HumidityAvg,HumidityLow,PressureMaxIn,PressureMinIn,WindSpeedMaxMPH,WindSpeedAvgMPH,GustSpeedMaxMPH,PrecipitationSumIn
2013-1-1,62.0,55.7,52.0,55.0,50.6,46.0,92,83,75,30.17,29.93,5,1,12,0.00
2013-1-2,64.0,55.4,49.0,59.0,52.5,46.0,95,90,81,30.16,29.87,6,2,14,0.01
2013-1-3,48.0,44.8,40.0,46.0,42.5,37.0,95,92,88,30.25,30.10,5,2,12,0.08
2013-1-4,51.0,42.4,35.0,41.0,36.5,34.0,96,81,58,30.33,30.21,3,1,10,0.01
2013-1-5,51.0,42.7,32.0,39.0,33.7,28.0,89,72,52,30.39,30.27,5,1,9,0.01
2013-1-6,53.0,48.5,43.0,49.0,43.7,38.0,92,83,70,30.28,30.07,5,1,10,0.01
2013-1-7,55.0,49.0,41.0,46.0,41.0,35.0,92,75,52,30.38,30.13,7,3,15,0.01
2013-1-8,60.0,52.0,43.0,53.0,45.7,36.0,92,79,71,30.40,30.30,7,2,15,0.00
2013-1-9,67.0,59.9,53.0,61.0,55.4,50.0,93,86,71,30.37,30.31,4,1,11,0.00
2013-1-10,63.0,58.1,55.0,58.0,53.6,46.0,98,85,70,30.44,30.35,5,2,15,0.01
2013-1-11,71.0,59.7,54.0,65.0,57.2,48.0,97,91,78,30.35,30.15,4,1,10,0.01
2013-1-12,70.0,63.2,57.0,66.0,60.6,56.0,98,92,81,30.17,30.09,6,2,11,0.01
2013-1-13,72.0,62.1,58.0,65.0,60.0,56.0,97,93,78,30.16,30.07,4,1,10,0.01
2013-1-14,65.0,60.9,57.0,64.0,59.5,56.0,99,96,91,30.17,30.09,5,2,11,0.01
2013-1-15,66.0,61.0,57.0,63.0,59.9,56.0,99,96,89,30.15,30.01,4,1,8,0.01
2013-1-16,66.0,62.5,59.0,64.0,60.7,58.0,99,94,85,30.04,29.93,7,2,15,0.01
2013-1-17,66.0,60.0,46.0,64.0,57.7,42.0,98,92,79,29.99,29.72,13,4,27,0.15
2013-1-18,54.0,45.0,38.0,42.0,33.6,27.0,92,67,37,30.49,29.99,11,4,26,0.14
2013-1-19,56.0,45.8,36.0,48.0,38.3,30.0,94,76,55,30.47,30.21,4,1,9,0.00
2013-1-20,68.0,54.6,46.0,48.0,40.3,31.0,96,65,25,30.21,30.01,9,2,19,0.00
2013-1-21,66.0,54.2,42.0,52.0,39.3,33.0,80,60,29,30.07,29.91,7,2,14,0.00
2013-1-22,54.0,45.5,36.0,36.0,26.7,19.0,66,49,30,30.24,29.98,7,2,14,0.00
2013-1-23,47.0,39.0,30.0,38.0,21.8,8.0,74,51,29,30.37,30.14,6,3,13,0.00
2013-1-24,57.0,45.6,31.0,44.0,31.2,13.0,78,58,40,30.50,30.03,10,6,26,0.00
2013-1-25,41.0,34.4,27.0,35.0,21.9,8.0,79,61,43,30.48,30.13,7,3,14,0.00
2013-1-26,56.0,43.1,35.0,38.0,32.1,27.0,78,66,49,30.34,30.10,7,2,15,0.00
2013-1-27,48.0,40.5,31.0,38.0,32.5,26.0,87,73,63,30.53,30.34,7,3,16,0.00
2013-1-28,57.0,46.1,37.0,52.0,41.2,31.0,94,83,73,30.48,30.27,4,1,10,0.00
2013-1-29,63.0,54.8,45.0,60.0,53.2,44.0,98,95,86,30.27,30.12,5,2,12,0.00
2013-1-30,64.0,59.2,56.0,62.0,57.9,55.0,99,96,91,30.12,29.59,9,4,17,0.01
2013-1-31,61.0,50.9,45.0,60.0,30.8,24.0,95,48,31,30.11,29.59,12,6,28,0.12
2013-2-1,55.0,45.8,36.0,33.0,23.0,8.0,61,42,17,30.35,30.09,11,5,27,0.04
2013-2-2,51.0,41.5,29.0,44.0,28.4,9.0,88,61,34,30.39,30.06,5,2,12,0.00
2013-2-3,59.0,48.8,42.0,39.0,34.9,31.0,80,61,38,30.06,29.87,11,4,26,0.00
2013-2-4,49.0,43.4,34.0,37.0,32.3,28.0,82,65,55,30.15,30.00,3,1,8,0.00
2013-2-5,67.0,52.7,43.0,51.0,42.4,36.0,83,70,34,30.06,29.92,7,2,15,0.00
2013-2-6,66.0,55.5,50.0,52.0,49.4,47.0,91,81,51,30.20,29.99,4,2,10,0.00
2013-2-7,60.0,53.1,46.0,55.0,50.7,44.0,97,91,83,30.19,29.73,9,4,22,0.81
2013-2-8,64.0,55.6,49.0,54.0,49.4,46.0,97,81,60,30.02,29.64,8,4,24,0.68
2013-2-9,61.0,47.7,38.0,48.0,33.5,24.0,88,62,28,30.34,30.02,10,3,19,0.00
2013-2-10,57.0,50.9,40.0,53.0,44.3,35.0,92,78,63,30.43,30.21,4,1,13,0.00
2013-2-11,66.0,59.8,55.0,64.0,58.1,53.0,98,94,88,30.25,30.00,7,3,17,0.42
2013-2-12,60.0,56.7,49.0,59.0,54.9,46.0,97,94,87,30.10,29.91,6,2,12,0.55
2013-2-13,67.0,54.5,49.0,62.0,51.1,46.0,99,89,67,29.93,29.66,11,4,24,0.34
2013-2-14,54.0,49.4,43.0,50.0,41.2,37.0,90,74,56,30.07,29.81,6,2,14,0.01
2013-2-15,57.0,47.7,39.0,46.0,41.6,37.0,93,80,56,30.09,29.96,6,2,10,0.00
2013-2-16,55.0,43.1,33.0,44.0,39.2,32.0,95,87,64,29.96,29.77,10,3,29,0.15
2013-2-17,42.0,34.2,29.0,32.0,24.4,18.0,95,70,40,30.29,29.95,13,3,27,0.11
2013-2-18,50.0,40.3,29.0,36.0,28.6,22.0,86,64,42,30.44,30.28,5,2,10,0.01
2013-2-19,60.0,51.6,38.0,56.0,48.0,34.0,95,88,73,30.27,29.94,9,2,22,0.05
2013-2-20,53.0,47.4,38.0,48.0,37.0,27.0,93,69,37,30.13,29.99,6,2,13,0.03
2013-2-21,52.0,46.5,38.0,46.0,35.2,23.0,85,66,40,30.19,30.07,5,2,10,0.00
2013-2-22,52.0,48.9,45.0,50.0,44.8,36.0,96,86,70,30.24,30.04,8,3,20,0.11
2013-2-23,49.0,46.3,43.0,48.0,45.3,42.0,98,97,96,30.04,29.76,6,2,13,0.45
2013-2-24,66.0,52.7,47.0,52.0,48.1,42.0,98,87,41,29.98,29.73,7,3,15,0.07
2013-2-25,49.0,45.7,43.0,47.0,39.8,36.0,96,80,63,30.13,29.95,8,3,22,0.02
2013-2-26,63.0,54.9,44.0,63.0,53.7,42.0,99,96,88,30.02,29.57,11,4,21,0.76
2013-2-27,61.0,53.3,48.0,57.0,44.0,38.0,94,71,55,29.85,29.66,12,4,24,0.02
2013-2-28,58.0,50.9,45.0,43.0,37.6,33.0,85,62,40,29.85,29.73,11,4,25,0.00
2013-3-1,55.0,46.4,39.0,36.0,33.2,31.0,75,61,44,29.92,29.83,6,2,20,0.00
2013-3-2,49.0,43.0,38.0,38.0,34.7,32.0,87,73,54,29.90,29.81,6,2,15,0.00
2013-3-3,49.0,41.3,36.0,36.0,27.7,24.0,90,60,41,29.97,29.85,8,4,22,0.00
2013-3-4,54.0,42.1,31.0,31.0,23.2,19.0,77,49,27,30.13,29.96,9,3,20,0.00
2013-3-5,62.0,51.6,42.0,55.0,44.8,32.0,91,78,64,30.11,29.64,9,4,19,0.01
2013-3-6,62.0,49.6,42.0,55.0,32.7,25.0,85,53,37,30.01,29.60,15,8,35,0.01
2013-3-7,58.0,47.0,36.0,35.0,32.0,29.0,78,57,38,30.19,30.03,8,4,17,0.01
2013-3-8,58.0,47.2,37.0,33.0,29.7,27.0,72,53,32,30.25,30.13,9,4,20,0.00
2013-3-9,57.0,48.0,38.0,45.0,36.3,29.0,84,65,42,30.30,30.22,7,2,15,0.00
2013-3-10,59.0,50.2,40.0,49.0,43.9,37.0,90,80,62,30.30,30.22,3,0,7,0.00
2013-3-11,64.0,56.0,48.0,57.0,52.4,45.0,95,88,74,30.22,29.92,6,1,13,0.00
2013-3-12,70.0,60.1,57.0,64.0,57.7,51.0,98,92,75,29.93,29.77,8,3,19,0.21
2013-3-13,64.0,55.2,46.0,51.0,35.6,25.0,78,50,23,30.09,29.88,11,4,27,0.01
2013-3-14,55.0,45.8,36.0,29.0,23.5,19.0,55,42,28,30.26,30.06,9,4,19,0.00
2013-3-15,56.0,48.2,37.0,48.0,36.0,27.0,80,63,42,30.21,29.99,9,3,16,0.00
2013-3-16,78.0,62.8,56.0,54.0,48.7,45.0,81,61,34,29.99,29.78,11,6,25,0.00
2013-3-17,76.0,62.7,58.0,57.0,52.2,47.0,85,69,47,30.01,29.88,9,4,18,0.00
2013-3-18,62.0,54.9,50.0,54.0,51.3,48.0,96,88,70,30.09,29.83,7,2,16,0.01
2013-3-19,72.0,59.5,53.0,56.0,50.4,39.0,98,76,40,29.96,29.76,10,3,23,0.31
2013-3-20,61.0,52.6,44.0,40.0,32.3,19.0,78,48,24,30.09,29.80,6,2,13,0.01
2013-3-21,55.0,46.9,41.0,40.0,24.8,14.0,87,46,24,29.93,29.72,9,4,23,0.00
2013-3-22,50.0,42.4,32.0,38.0,24.9,16.0,67,50,30,30.09,29.93,6,3,13,0.00
2013-3-23,52.0,46.6,42.0,48.0,41.1,34.0,90,81,56,30.06,29.89,5,1,12,0.23
2013-3-24,62.0,52.0,45.0,60.0,49.6,43.0,97,92,81,29.91,29.41,9,4,19,1.55
2013-3-25,52.0,46.5,44.0,44.0,39.5,32.0,95,79,48,29.67,29.55,14,6,32,0.01
2013-4-5,55.0,52.3,49.0,50.0,48.8,46.0,94,88,82,30.01,29.90,0,0,4,0.28
2013-4-6,64.0,54.6,46.0,54.0,48.1,44.0,95,80,59,30.25,30.00,5,2,13,0.00
2013-4-7,64.0,57.9,49.0,59.0,53.9,47.0,94,87,77,30.25,30.14,4,1,8,0.00
2013-4-8,68.0,63.0,58.0,62.0,59.8,57.0,97,89,79,30.19,30.10,6,1,11,0.01
2013-4-9,70.0,65.4,61.0,66.0,62.8,59.0,96,91,86,30.21,30.10,7,2,12,0.01
2013-4-10,72.0,66.0,62.0,65.0,63.2,61.0,96,90,79,30.14,30.01,9,3,18,0.01
2013-4-11,71.0,66.0,61.0,68.0,64.4,60.0,99,94,88,30.01,29.84,11,3,18,0.01
2013-4-12,72.0,67.4,65.0,71.0,66.1,64.0,98,96,89,29.85,29.70,8,4,17,1.22
2013-4-13,74.0,64.7,57.0,68.0,56.1,46.0,98,75,42,30.00,29.76,7,2,17,0.01
2013-4-14,69.0,61.4,54.0,63.0,58.4,53.0,98,90,71,30.08,29.98,4,1,8,0.02
2013-4-15,70.0,65.4,61.0,63.0,61.8,59.0,96,88,77,30.14,29.86,10,2,23,0.45
2013-4-16,74.0,66.4,60.0,66.0,62.3,58.0,96,87,77,30.24,30.14,3,1,9,0.04
2013-4-17,73.0,67.1,60.0,67.0,64.3,59.0,98,91,79,30.21,30.12,3,1,8,0.01
2013-4-18,77.0,69.4,65.0,69.0,66.5,64.0,97,91,73,30.15,30.02,2,0,8,0.01
2013-4-19,73.0,70.2,66.0,71.0,68.5,65.0,98,94,90,30.03,29.84,14,5,21,0.55
2013-4-20,68.0,57.9,50.0,67.0,51.2,42.0,98,80,53,30.22,29.87,8,3,20,0.64
2013-4-21,64.0,56.1,47.0,52.0,46.8,41.0,88,72,58,30.35,30.22,10,5,22,0.01
2013-4-22,69.0,56.0,46.0,52.0,45.8,36.0,86,70,55,30.34,30.12,10,6,21,0.00
2013-4-23,67.0,57.8,51.0,57.0,52.2,48.0,93,82,66,30.19,30.11,9,4,20,0.00
2013-4-24,70.0,62.4,53.0,65.0,58.6,52.0,96,88,81,30.17,30.04,10,2,17,0.00
2013-4-25,75.0,66.3,60.0,66.0,62.8,58.0,96,89,71,30.22,30.05,6,2,12,0.44
2013-4-26,71.0,61.5,52.0,59.0,54.4,49.0,96,79,54,30.38,30.21,4,1,11,0.26
2013-4-27,72.0,64.5,60.0,60.0,57.1,48.0,92,78,53,30.32,30.22,4,1,9,0.00
2013-4-28,70.0,66.3,63.0,65.0,61.4,-99.9,93,87,82,30.22,30.05,7,2,14,0.00
2013-4-29,68.0,65.8,63.0,66.0,63.8,62.0,97,93,86,30.06,29.95,7,2,12,1.39
2013-4-30,73.0,67.0,64.0,67.0,63.9,62.0,98,90,75,30.08,29.94,7,1,12,0.28
2013-5-1,73.0,64.9,59.0,65.0,60.5,57.0,94,86,71,30.17,30.05,8,4,16,0.00
2013-5-2,71.0,66.0,63.0,65.0,62.2,58.0,94,88,81,30.19,30.13,6,4,20,0.00
2013-5-3,68.0,62.7,59.0,61.0,56.6,47.0,91,81,59,30.13,30.04,10,5,23,0.00
2013-5-4,64.0,59.5,55.0,60.0,55.1,49.0,91,85,77,30.05,29.93,8,5,27,0.04
2013-5-5,71.0,63.6,59.0,64.0,60.6,56.0,95,90,78,29.96,29.83,8,4,20,0.10
2013-5-6,70.0,65.7,61.0,65.0,61.1,55.0,97,86,68,29.88,29.80,10,4,18,0.23
2013-5-7,66.0,61.2,55.0,60.0,55.1,52.0,90,81,64,29.95,29.85,9,3,20,0.16
2013-5-8,70.0,64.4,57.0,63.0,59.0,54.0,93,83,68,30.01,29.92,11,4,17,0.08
2013-5-9,74.0,68.5,63.0,67.0,62.8,58.0,89,82,66,30.06,29.96,7,3,14,0.00
2013-5-10,75.0,68.6,65.0,68.0,62.2,-99.9,92,84,74,30.06,29.98,7,3,15,0.00
2013-5-11,74.0,70.9,69.0,70.0,67.6,66.0,95,89,77,30.00,29.83,8,4,17,0.00
2013-5-12,82.0,74.0,68.0,68.0,59.0,-99.9,88,64,37,29.95,29.79,7,3,19,0.00
2013-5-13,72.0,64.6,57.0,53.0,43.0,38.0,65,47,29,30.11,29.94,10,4,19,0.00
2013-5-14,68.0,62.6,54.0,56.0,45.7,39.0,75,55,40,30.24,30.10,8,4,17,0.00
2013-5-15,80.0,70.1,64.0,66.0,59.8,53.0,78,70,47,30.13,29.96,10,4,19,0.00
2013-5-16,87.0,69.8,67.0,70.0,40.9,-99.9,85,70,46,30.01,29.94,7,3,14,0.00
2013-5-17,82.0,72.2,68.0,70.0,59.0,-99.9,87,79,59,30.08,29.99,7,4,16,0.00
2013-5-18,78.0,72.9,68.0,72.0,69.0,65.0,94,88,79,30.14,30.07,6,2,12,0.00
2013-5-19,77.0,73.1,71.0,72.0,69.7,68.0,95,89,79,30.13,30.06,10,3,18,0.02
2013-5-20,74.0,72.0,71.0,71.0,69.7,68.0,95,93,88,30.11,30.02,7,3,13,0.48
2013-5-21,75.0,72.5,71.0,73.0,70.3,69.0,96,93,86,30.06,29.96,7,3,15,0.08
2013-5-22,82.0,74.6,69.0,75.0,71.5,68.0,97,90,79,30.02,29.91,7,2,13,0.01
2013-5-23,78.0,73.8,68.0,74.0,71.1,66.0,96,92,83,29.95,29.83,8,2,19,0.47
2013-5-24,81.0,72.7,63.0,70.0,60.0,43.0,95,68,35,30.14,29.78,9,4,24,0.43
2013-5-25,76.0,64.6,53.0,58.0,46.3,39.0,73,54,26,30.27,30.13,6,3,15,0.01
2013-5-26,75.0,67.8,59.0,64.0,56.3,50.0,88,68,45,30.23,30.13,5,2,11,0.00
2013-5-27,78.0,72.9,66.0,69.0,64.2,61.0,92,75,61,30.24,30.16,5,2,9,0.00
2013-5-28,79.0,74.9,71.0,71.0,68.9,67.0,90,82,72,30.24,30.17,7,2,12,0.00
2013-5-29,80.0,76.4,73.0,71.0,68.5,67.0,87,77,68,30.25,30.14,7,2,13,0.00
2013-5-30,83.0,76.6,68.0,75.0,70.7,66.0,95,82,73,30.25,30.17,7,2,12,0.00
2013-5-31,81.0,77.0,71.0,74.0,72.0,69.0,95,85,77,30.21,30.12,7,3,13,0.01
2013-6-1,80.0,76.6,71.0,72.0,71.0,69.0,94,83,74,30.14,30.06,9,4,14,0.01
2013-6-2,81.0,77.0,74.0,75.0,71.7,-99.9,93,87,79,30.09,29.93,10,5,18,0.00
2013-6-3,77.0,74.5,70.0,75.0,72.5,67.0,96,93,87,29.94,29.83,10,3,19,0.84
2013-6-4,84.0,75.9,70.0,76.0,72.6,69.0,98,90,76,30.03,29.88,3,0,8,0.06
2013-6-5,80.0,76.3,75.0,75.0,73.3,71.0,94,90,83,30.05,29.96,5,2,12,0.01
2013-6-6,79.0,75.9,73.0,76.0,73.6,71.0,96,93,89,29.98,29.74,8,3,16,0.89
2013-6-7,83.0,77.1,73.0,75.0,73.5,71.0,97,89,71,29.83,29.54,20,8,32,1.87
2013-6-8,85.0,79.4,77.0,77.0,74.6,71.0,95,86,64,30.07,29.82,9,4,17,0.02
2013-6-9,83.0,79.0,76.0,79.0,76.0,74.0,96,91,83,30.12,30.05,9,3,16,0.00
2013-6-10,81.0,78.9,71.0,77.0,75.5,69.0,94,90,86,30.10,29.94,14,7,24,0.18
2013-6-11,88.0,77.7,70.0,77.0,72.7,68.0,96,86,63,29.99,29.88,9,3,21,0.27
2013-6-12,86.0,80.2,74.0,80.0,76.7,73.0,97,89,82,29.96,29.86,7,2,12,0.11
2013-6-13,96.0,86.3,79.0,80.0,77.3,74.0,95,77,52,29.88,29.65,10,3,21,0.01
2013-6-14,86.0,79.6,73.0,77.0,63.9,58.0,88,61,40,29.96,29.66,9,4,21,0.00
2013-6-15,82.0,78.6,75.0,67.0,61.1,55.0,71,56,42,30.11,29.97,8,3,15,0.00
2013-6-16,81.0,78.3,72.0,69.0,65.8,63.0,76,66,57,30.14,30.04,9,5,20,0.00
2013-6-17,83.0,78.6,74.0,75.0,71.8,67.0,87,80,69,30.06,29.94,11,5,18,0.01
2013-6-18,88.0,79.5,74.0,78.0,73.7,69.0,93,83,64,29.98,29.80,13,4,21,0.23
2013-6-19,81.0,77.6,74.0,76.0,72.9,70.0,91,86,76,30.03,29.83,7,3,14,0.10
2013-6-20,84.0,74.9,69.0,73.0,69.3,66.0,92,83,68,30.14,30.02,7,3,14,0.10
2013-6-22,81.0,78.2,74.0,75.0,73.8,73.0,96,87,83,30.13,30.08,7,3,14,0.23
2013-6-23,85.0,79.1,74.0,78.0,74.7,72.0,96,87,75,30.17,30.11,9,3,16,0.01
2013-6-24,82.0,79.7,77.0,77.0,75.7,74.0,94,88,78,30.20,30.11,9,4,17,0.13
2013-6-25,84.0,79.9,77.0,77.0,75.7,74.0,93,87,78,30.13,30.01,10,4,18,0.01
2013-6-26,87.0,79.4,75.0,77.0,74.3,72.0,93,85,66,30.03,29.92,13,3,19,0.20
2013-6-27,86.0,79.2,75.0,79.0,75.5,69.0,94,89,74,29.97,29.75,11,4,21,0.04
2013-6-28,85.0,81.9,78.0,80.0,77.3,74.0,92,86,75,29.79,29.62,10,5,18,0.01
2013-6-29,84.0,79.3,73.0,78.0,74.7,71.0,93,86,74,29.75,29.64,15,5,24,0.13
2013-6-30,82.0,78.2,73.0,78.0,75.2,71.0,95,91,82,29.85,29.71,11,4,20,0.66
2013-7-1,81.0,77.8,73.0,78.0,74.7,71.0,96,91,83,30.02,29.81,18,7,33,1.64
2013-7-2,80.0,78.2,73.0,77.0,75.0,71.0,95,90,84,30.14,30.00,15,5,28,1.05
2013-7-3,83.0,80.4,76.0,79.0,76.7,74.0,94,89,83,30.21,30.11,9,5,15,0.30
2013-7-4,85.0,81.7,79.0,77.0,76.4,75.0,91,84,76,30.23,30.17,8,5,14,0.01
2013-7-5,85.0,81.7,80.0,79.0,76.9,75.0,91,85,80,30.23,30.16,9,5,15,0.00
2013-7-6,85.0,81.9,80.0,77.0,75.2,73.0,87,81,73,30.21,30.12,7,4,15,0.00
2013-7-7,85.0,81.6,80.0,76.0,73.9,72.0,86,78,71,30.17,30.07,8,5,14,0.04
2013-7-8,85.0,79.0,74.0,75.0,71.6,-99.9,92,81,67,30.16,30.09,8,3,13,0.04
2013-7-9,84.0,80.1,76.0,77.0,74.3,72.0,90,83,76,30.16,30.07,10,4,17,0.00
2013-7-10,86.0,80.4,78.0,77.0,72.6,-99.9,89,80,74,30.11,29.95,7,3,13,0.00
2013-7-11,86.0,80.5,77.0,78.0,75.2,73.0,90,84,67,29.98,29.86,13,4,20,0.00
2013-7-12,80.0,76.5,73.0,76.0,73.4,72.0,96,90,84,29.94,29.85,4,1,14,0.67
2013-7-13,85.0,79.0,73.0,78.0,74.9,71.0,95,88,78,30.08,29.92,11,3,20,0.05
2013-7-14,88.0,82.1,76.0,79.0,76.4,73.0,91,83,73,30.21,30.08,10,3,23,0.12
2013-7-15,89.0,83.2,80.0,80.0,77.3,76.0,89,83,72,30.24,30.17,2,1,8,0.01
2013-7-16,88.0,82.0,75.0,78.0,75.4,73.0,95,81,69,30.24,30.16,5,2,10,0.00
2013-7-17,91.0,79.5,72.0,80.0,75.0,70.0,96,87,67,30.18,30.07,7,2,19,1.33
2013-7-18,87.0,78.8,73.0,78.0,74.8,72.0,99,88,74,30.12,30.04,7,2,13,0.01
2013-7-19,86.0,80.9,76.0,77.0,75.0,73.0,92,83,74,30.11,29.99,12,4,22,0.01
2013-7-20,85.0,79.7,77.0,77.0,73.1,-99.9,89,82,71,30.06,29.96,11,6,21,0.01
2013-7-21,84.0,78.4,74.0,78.0,74.0,72.0,93,86,77,30.02,29.91,9,3,20,0.01
2013-7-22,88.0,80.3,74.0,78.0,74.6,72.0,94,84,65,29.96,29.85,8,3,16,0.00
2013-7-23,89.0,81.4,76.0,75.0,73.9,72.0,91,79,64,29.88,29.74,7,4,19,0.00
2013-7-24,82.0,79.3,77.0,77.0,75.1,74.0,92,88,79,29.79,29.72,6,2,11,0.00
2013-7-25,84.0,79.3,73.0,76.0,74.0,70.0,95,84,72,29.95,29.74,6,2,11,0.00
2013-7-26,86.0,78.9,73.0,78.0,73.5,70.0,90,83,74,30.05,29.95,5,2,10,0.00
2013-7-27,85.0,81.0,77.0,76.0,74.7,72.0,88,81,75,30.02,29.90,4,2,10,0.00
2013-7-28,85.0,80.0,75.0,79.0,75.8,72.0,94,87,78,29.99,29.88,8,3,17,0.00
2013-7-29,86.0,78.8,73.0,80.0,75.6,70.0,96,90,72,30.11,29.98,11,2,20,0.53
2013-7-30,85.0,79.2,74.0,78.0,75.3,73.0,97,88,75,30.15,30.08,5,1,9,0.01
2013-7-31,87.0,79.7,76.0,79.0,75.8,73.0,96,89,76,30.10,29.98,5,1,10,0.20
2013-8-1,83.0,77.8,74.0,77.0,74.4,72.0,97,90,77,29.98,29.89,9,2,15,1.00
2013-8-2,85.0,79.7,76.0,78.0,76.3,74.0,96,90,78,30.01,29.90,10,4,18,1.27
2013-8-3,86.0,81.6,78.0,79.0,77.2,75.0,95,87,78,30.01,29.90,6,2,11,0.90
2013-8-4,91.0,82.5,75.0,77.0,74.2,70.0,94,77,58,29.97,29.86,10,2,17,0.00
2013-8-5,85.0,81.4,79.0,72.0,67.5,64.0,77,63,52,30.03,29.94,4,1,11,0.00
2013-8-6,84.0,80.6,79.0,71.0,68.6,65.0,74,67,61,30.03,29.93,7,2,13,0.00
2013-8-7,87.0,80.7,75.0,77.0,72.3,68.0,89,76,64,30.05,29.99,6,1,12,0.01
2013-8-8,88.0,81.2,75.0,79.0,76.0,73.0,94,85,71,30.04,29.98,6,1,12,0.01
2013-8-9,85.0,81.9,78.0,79.0,77.1,76.0,95,86,76,30.08,29.98,10,4,17,0.20
2013-8-10,87.0,82.1,76.0,80.0,77.3,74.0,96,86,71,30.09,30.03,9,3,17,0.20
2013-8-11,91.0,82.9,78.0,81.0,77.5,75.0,95,84,64,30.10,30.01,8,3,16,0.00
2013-8-21,87.0,81.6,76.0,80.0,77.1,74.0,97,87,76,30.18,30.08,7,2,11,0.20
2013-8-22,85.0,80.0,75.0,78.0,75.5,73.0,95,86,74,30.11,30.00,7,2,14,0.02
2013-8-23,91.0,80.6,74.0,78.0,75.0,72.0,95,84,60,30.01,29.91,6,3,15,0.02
2013-8-24,83.0,77.5,72.0,75.0,70.1,66.0,94,79,63,30.19,29.98,6,3,15,0.02
2013-8-25,83.0,73.7,66.0,68.0,61.9,-99.9,90,71,56,30.27,30.19,8,3,19,0.00
2013-8-26,86.0,75.9,66.0,68.0,64.8,62.0,88,70,51,30.24,30.10,5,2,10,0.00
2013-8-27,82.0,73.6,67.0,70.0,66.7,65.0,94,80,60,30.11,29.99,6,2,11,0.00
2013-9-14,83.0,76.2,70.0,71.0,66.5,61.0,85,72,60,30.04,29.77,7,3,14,0.00
2013-9-15,83.0,73.3,68.0,75.0,66.0,-99.9,91,82,76,30.14,30.04,6,2,13,0.00
2013-9-16,86.0,80.4,76.0,76.0,74.0,72.0,89,81,66,30.10,29.98,7,2,12,0.03
2013-9-17,82.0,74.0,67.0,74.0,64.3,61.0,87,72,55,30.19,30.05,7,4,18,0.03
2013-9-18,70.0,62.9,59.0,61.0,56.3,54.0,83,80,74,30.19,30.16,8,5,15,0.00
2013-9-19,82.0,72.5,62.0,65.0,62.1,59.0,90,71,55,30.13,30.05,4,1,11,0.00
2013-9-20,83.0,74.1,65.0,69.0,64.9,61.0,90,74,55,30.05,29.93,4,1,9,0.00
2013-10-2,82.0,71.8,62.0,69.0,63.8,59.0,92,77,54,30.10,30.03,5,2,10,0.00
2013-10-3,83.0,73.7,64.0,73.0,68.8,63.0,95,85,70,30.12,30.06,2,0,7,0.00
2013-10-4,83.0,76.0,69.0,74.0,71.5,68.0,96,86,72,30.11,30.04,3,0,9,0.00
2013-10-5,83.0,74.7,67.0,74.0,70.9,66.0,98,89,70,30.09,30.02,2,1,8,0.01
2013-10-6,82.0,76.3,72.0,77.0,73.3,70.0,97,90,82,30.03,29.91,10,2,16,0.02
2013-10-7,78.0,75.8,73.0,75.0,73.2,71.0,96,92,86,29.91,29.79,8,3,17,0.35
2013-10-8,73.0,63.4,57.0,72.0,61.7,56.0,96,94,90,30.05,29.83,10,6,23,0.68
2013-10-9,73.0,63.6,57.0,63.0,58.7,56.0,96,85,71,30.03,29.98,11,7,24,0.62
2013-10-10,69.0,63.0,59.0,61.0,57.4,55.0,87,82,74,29.99,29.92,9,5,22,0.00
2013-10-18,76.0,70.0,65.0,72.0,68.0,64.0,97,93,87,29.96,29.87,5,1,9,0.20
2013-10-19,76.0,70.2,65.0,74.0,68.6,64.0,98,95,80,29.93,29.83,4,1,9,0.20
2013-10-20,70.0,63.8,60.0,64.0,54.6,-99.9,91,75,61,30.05,29.87,7,2,15,0.01
2013-10-21,70.0,62.8,56.0,59.0,55.5,52.0,89,78,65,30.10,29.99,5,2,11,0.01
2013-10-22,68.0,63.7,60.0,63.0,58.5,56.0,95,84,72,29.99,29.83,2,0,6,0.06
2013-10-23,72.0,63.6,56.0,61.0,53.2,42.0,97,72,38,29.96,29.70,9,3,22,0.11
2013-10-24,64.0,54.0,44.0,46.0,39.8,34.0,77,60,41,30.16,29.96,7,2,15,0.01
2013-10-25,61.0,53.9,45.0,46.0,38.9,35.0,77,58,39,30.33,30.14,8,3,17,0.00
2013-10-26,64.0,50.5,38.0,48.0,39.9,34.0,86,69,45,30.32,30.11,5,2,12,0.00
2013-10-27,66.0,56.5,47.0,54.0,45.3,-99.9,88,70,48,30.12,30.05,4,1,10,0.00
2013-10-28,71.0,61.1,54.0,62.0,54.4,-99.9,92,84,62,30.24,30.11,4,0,7,0.00
2013-10-29,73.0,64.0,55.0,63.0,59.8,54.0,96,87,70,30.29,30.21,2,1,9,0.01
2013-10-30,73.0,65.0,56.0,65.0,60.9,55.0,96,87,73,30.29,30.16,4,1,9,0.01